Time;durP1;ratioP1;P1;durP2;ratioP2;P2;SDS_P1;SDS_P2;PMS_P1;PMS_P2;Temp;Humidity;BMP_temperature;BMP_pressure;BME280_temperature;BME280_humidity;BME280_pressure;Samples;Min_cycle;Max_cycle;Signal;HPM_P1;HPM_P2
2023/08/04 00:01:58;;;;;;;8.10;3.08;;;17.80;79.50;;;;;;5043189;28;20040;-71
2023/08/04 00:04:24;;;;;;;7.10;2.80;;;17.80;79.50;;;;;;5045100;28;20043;-72
2023/08/04 00:06:50;;;;;;;9.50;3.08;;;17.80;79.50;;;;;;5027980;28;20021;-72
2023/08/04 00:09:16;;;;;;;12.23;3.25;;;17.80;79.50;;;;;;5044798;28;20068;-72
2023/08/04 00:11:42;;;;;;;9.55;3.20;;;17.80;79.50;;;;;;5043670;28;20524;-71
2023/08/04 00:14:09;;;;;;;11.55;3.03;;;17.80;79.50;;;;;;5051918;28;20029;-71
2023/08/04 00:16:35;;;;;;;8.35;2.95;;;17.80;79.50;;;;;;5043859;28;20079;-71
2023/08/04 00:19:00;;;;;;;8.77;3.05;;;17.80;79.50;;;;;;5050564;28;20025;-71
2023/08/04 00:21:26;;;;;;;11.75;3.33;;;17.80;79.50;;;;;;5051903;28;20405;-71
2023/08/04 00:23:58;;;;;;;12.73;2.92;;;17.70;79.50;;;;;;5047719;28;20043;-71
2023/08/04 00:26:24;;;;;;;9.88;2.83;;;17.70;79.50;;;;;;5051251;28;20350;-71
2023/08/04 00:28:50;;;;;;;7.90;3.03;;;17.70;79.60;;;;;;5043283;28;20423;-71
2023/08/04 00:31:17;;;;;;;8.68;3.35;;;17.70;79.70;;;;;;5052189;28;20425;-71
2023/08/04 00:33:43;;;;;;;8.02;2.85;;;17.70;79.70;;;;;;5037770;28;20052;-72
2023/08/04 00:36:08;;;;;;;9.27;3.25;;;17.70;79.80;;;;;;5054525;28;20045;-71
2023/08/04 00:38:34;;;;;;;9.35;3.63;;;17.70;79.80;;;;;;5038634;28;20354;-71
2023/08/04 00:41:00;;;;;;;8.38;3.00;;;17.80;79.90;;;;;;5040832;28;20028;-71
2023/08/04 00:43:25;;;;;;;9.77;3.80;;;17.80;79.90;;;;;;5024988;28;20067;-71
2023/08/04 00:45:52;;;;;;;10.55;3.60;;;17.80;79.90;;;;;;5050549;28;20055;-71
2023/08/04 00:48:18;;;;;;;10.52;3.47;;;17.80;79.90;;;;;;5054290;28;20051;-72
2023/08/04 00:50:43;;;;;;;9.38;3.60;;;17.80;79.90;;;;;;5049266;28;20036;-72
2023/08/04 00:53:11;;;;;;;7.85;3.40;;;17.80;79.90;;;;;;5042751;28;20062;-71
2023/08/04 00:55:37;;;;;;;10.13;3.17;;;17.80;79.90;;;;;;5023914;28;20471;-71
2023/08/04 00:58:03;;;;;;;6.32;3.03;;;17.80;80.00;;;;;;5053504;28;20144;-71
2023/08/04 01:00:28;;;;;;;8.93;3.42;;;17.80;80.00;;;;;;5054034;28;20040;-71
2023/08/04 01:02:54;;;;;;;12.15;3.55;;;17.80;80.00;;;;;;5053179;28;20037;-72
2023/08/04 01:05:25;;;;;;;10.23;3.40;;;17.70;80.00;;;;;;5043030;28;20021;-71
2023/08/04 01:08:01;;;;;;;8.45;3.63;;;17.70;80.00;;;;;;5039578;28;20351;-72
2023/08/04 01:10:33;;;;;;;10.27;3.08;;;17.70;80.10;;;;;;5048398;28;20471;-71
2023/08/04 01:13:07;;;;;;;10.25;3.83;;;17.70;80.20;;;;;;5044519;28;20064;-71
2023/08/04 01:15:35;;;;;;;10.88;3.20;;;17.60;80.20;;;;;;5039693;28;20106;-72
2023/08/04 01:18:00;;;;;;;9.45;3.47;;;17.60;80.20;;;;;;5034862;28;20044;-72
2023/08/04 01:20:27;;;;;;;8.48;3.63;;;17.60;80.20;;;;;;5054721;28;20137;-71
2023/08/04 01:22:54;;;;;;;8.48;3.25;;;17.60;80.30;;;;;;5041298;28;20043;-71
2023/08/04 01:25:35;;;;;;;9.93;3.45;;;17.60;80.40;;;;;;5054426;28;20029;-71
2023/08/04 01:28:05;;;;;;;10.50;3.40;;;17.60;80.40;;;;;;5050894;28;20048;-71
2023/08/04 01:30:32;;;;;;;10.90;4.30;;;17.50;80.50;;;;;;5052699;28;20025;-71
2023/08/04 01:32:58;;;;;;;11.52;3.58;;;17.50;80.60;;;;;;5047494;28;20021;-69
2023/08/04 01:35:25;;;;;;;8.93;3.45;;;17.60;80.70;;;;;;5041840;28;20032;-69
2023/08/04 01:37:51;;;;;;;9.00;3.40;;;17.60;80.80;;;;;;5042139;28;20124;-69
2023/08/04 01:40:17;;;;;;;8.73;3.40;;;17.60;80.80;;;;;;5051947;28;20097;-69
2023/08/04 01:42:43;;;;;;;11.13;3.60;;;17.60;80.80;;;;;;5053469;28;20418;-69
2023/08/04 01:45:09;;;;;;;8.10;3.50;;;17.60;80.80;;;;;;5054960;28;20055;-70
2023/08/04 01:47:35;;;;;;;7.72;3.00;;;17.70;80.80;;;;;;5053933;28;20024;-70
2023/08/04 01:50:01;;;;;;;8.63;3.92;;;17.70;80.90;;;;;;5054098;28;20086;-69
2023/08/04 01:52:28;;;;;;;8.93;3.63;;;17.70;80.90;;;;;;5051272;28;20058;-69
2023/08/04 01:54:55;;;;;;;9.23;4.20;;;17.70;80.80;;;;;;5034323;28;20029;-69
2023/08/04 01:57:21;;;;;;;9.25;4.22;;;17.70;80.80;;;;;;5028984;28;20041;-69
2023/08/04 01:59:46;;;;;;;14.10;4.22;;;17.70;80.90;;;;;;5061335;28;20029;-70
2023/08/04 02:02:12;;;;;;;9.30;3.60;;;17.60;80.80;;;;;;5043131;28;20029;-69
2023/08/04 02:04:38;;;;;;;10.35;3.38;;;17.70;80.90;;;;;;5051735;28;20021;-69
2023/08/04 02:07:04;;;;;;;10.38;3.58;;;17.70;80.80;;;;;;5048156;28;20382;-69
2023/08/04 02:09:30;;;;;;;13.63;3.83;;;17.70;80.80;;;;;;5046119;28;20090;-69
2023/08/04 02:11:56;;;;;;;9.48;3.72;;;17.70;80.90;;;;;;5046855;28;20032;-69
2023/08/04 02:14:22;;;;;;;10.10;3.70;;;17.70;80.80;;;;;;5030062;28;20043;-69
2023/08/04 02:16:48;;;;;;;8.43;3.45;;;17.70;80.90;;;;;;5040882;28;20049;-69
2023/08/04 02:19:14;;;;;;;8.18;3.47;;;17.70;80.80;;;;;;5064981;28;20031;-69
2023/08/04 02:21:39;;;;;;;11.68;3.78;;;17.60;80.80;;;;;;5042224;28;20021;-69
2023/08/04 02:24:05;;;;;;;11.20;3.75;;;17.60;80.90;;;;;;5047033;28;20068;-69
2023/08/04 02:26:31;;;;;;;7.72;3.67;;;17.60;80.90;;;;;;5054310;28;20109;-69
2023/08/04 02:28:57;;;;;;;9.00;3.80;;;17.60;80.80;;;;;;5049033;28;20108;-71
2023/08/04 02:31:25;;;;;;;9.82;3.80;;;17.60;80.90;;;;;;5036770;28;20361;-71
2023/08/04 02:33:52;;;;;;;10.85;4.47;;;17.60;80.80;;;;;;5050854;28;20049;-71
2023/08/04 02:36:19;;;;;;;9.50;3.90;;;17.60;80.80;;;;;;5052377;28;20053;-71
2023/08/04 02:38:45;;;;;;;10.38;3.83;;;17.60;80.80;;;;;;5042918;28;20025;-71
2023/08/04 02:41:12;;;;;;;9.13;3.25;;;17.60;80.80;;;;;;5054081;28;20028;-71
2023/08/04 02:43:39;;;;;;;11.40;3.63;;;17.60;80.80;;;;;;5051466;28;20454;-71
2023/08/04 02:46:05;;;;;;;10.52;4.18;;;17.60;80.80;;;;;;5055473;28;20152;-71
2023/08/04 02:48:33;;;;;;;12.73;3.70;;;17.60;80.80;;;;;;5047947;28;20112;-71
2023/08/04 02:51:09;;;;;;;8.70;4.00;;;17.60;80.80;;;;;;5058333;28;20030;-71
2023/08/04 02:53:39;;;;;;;12.70;4.38;;;17.60;80.80;;;;;;5051177;28;20029;-71
2023/08/04 02:56:15;;;;;;;9.30;3.53;;;17.60;80.80;;;;;;5056869;28;20048;-71
2023/08/04 02:58:43;;;;;;;10.30;3.50;;;17.60;80.80;;;;;;5053319;28;20028;-71
2023/08/04 03:01:09;;;;;;;8.13;3.58;;;17.60;80.80;;;;;;5057995;28;20033;-71
2023/08/04 03:03:35;;;;;;;12.48;4.13;;;17.60;80.90;;;;;;5054128;28;20159;-71
2023/08/04 03:06:02;;;;;;;7.50;3.55;;;17.60;80.90;;;;;;5040281;28;20440;-71
2023/08/04 03:08:29;;;;;;;10.38;4.13;;;17.60;80.90;;;;;;5047467;28;20033;-71
2023/08/04 03:10:55;;;;;;;9.43;4.13;;;17.60;80.90;;;;;;5047520;28;20029;-72
2023/08/04 03:13:21;;;;;;;11.40;4.78;;;17.60;80.90;;;;;;5054141;28;20021;-71
2023/08/04 03:15:53;;;;;;;10.50;4.18;;;17.60;80.90;;;;;;5038864;28;20032;-71
2023/08/04 03:18:18;;;;;;;9.52;4.38;;;17.50;80.90;;;;;;5041048;28;20037;-72
2023/08/04 03:20:44;;;;;;;11.40;4.53;;;17.50;80.90;;;;;;5053909;28;20091;-71
2023/08/04 03:23:10;;;;;;;11.75;4.53;;;17.50;81.00;;;;;;5051540;28;20072;-71
2023/08/04 03:25:35;;;;;;;9.75;5.05;;;17.50;81.00;;;;;;5055210;28;20449;-71
2023/08/04 03:28:01;;;;;;;14.75;5.45;;;17.50;81.00;;;;;;5052494;28;20021;-71
2023/08/04 03:30:27;;;;;;;13.50;5.07;;;17.50;81.00;;;;;;5050932;28;20025;-71
2023/08/04 03:32:53;;;;;;;13.00;5.20;;;17.50;81.00;;;;;;5055348;28;20076;-71
2023/08/04 03:35:19;;;;;;;13.35;5.20;;;17.50;81.70;;;;;;5050220;28;20027;-71
2023/08/04 03:37:44;;;;;;;10.55;5.38;;;17.50;81.10;;;;;;5056499;28;20028;-72
2023/08/04 03:40:11;;;;;;;13.57;4.80;;;17.50;81.10;;;;;;5039234;28;20037;-72
2023/08/04 03:42:38;;;;;;;10.63;4.50;;;17.50;81.10;;;;;;5056170;28;20028;-71
2023/08/04 03:45:05;;;;;;;12.73;5.10;;;17.60;81.50;;;;;;5051656;28;20036;-71
2023/08/04 03:47:31;;;;;;;10.55;4.88;;;17.50;81.10;;;;;;5056354;28;20052;-71
2023/08/04 03:49:57;;;;;;;15.10;5.65;;;17.60;81.20;;;;;;5051908;28;20025;-71
2023/08/04 03:52:23;;;;;;;11.15;5.78;;;17.60;81.10;;;;;;5039542;28;20029;-71
2023/08/04 03:54:49;;;;;;;12.52;5.57;;;17.60;81.20;;;;;;5036978;28;20558;-71
2023/08/04 03:57:14;;;;;;;13.20;5.70;;;17.50;81.20;;;;;;5053123;28;20111;-71
2023/08/04 03:59:40;;;;;;;10.00;5.05;;;17.50;81.20;;;;;;5035729;28;20025;-71
2023/08/04 04:02:06;;;;;;;12.45;4.93;;;17.50;81.30;;;;;;5051689;28;20025;-71
2023/08/04 04:04:32;;;;;;;14.32;5.40;;;17.50;82.00;;;;;;5040557;28;20028;-71
2023/08/04 04:06:57;;;;;;;13.70;5.50;;;17.50;81.30;;;;;;5043254;28;20031;-71
2023/08/04 04:09:23;;;;;;;12.70;5.60;;;17.50;81.40;;;;;;5029508;28;20451;-71
2023/08/04 04:11:49;;;;;;;10.95;5.38;;;17.50;81.30;;;;;;5049697;28;20430;-71
2023/08/04 04:14:14;;;;;;;13.05;5.90;;;17.50;81.30;;;;;;5046601;28;20029;-71
2023/08/04 04:16:40;;;;;;;12.15;6.07;;;17.50;81.40;;;;;;5025557;28;20057;-71
2023/08/04 04:19:06;;;;;;;10.50;5.38;;;17.50;81.40;;;;;;5047950;28;20450;-71
2023/08/04 04:21:32;;;;;;;9.80;5.72;;;17.50;81.40;;;;;;5031508;28;20025;-71
2023/08/04 04:23:57;;;;;;;11.63;5.10;;;17.50;81.40;;;;;;5043718;28;20059;-71
2023/08/04 04:26:24;;;;;;;12.70;6.25;;;17.50;81.50;;;;;;5045647;28;20537;-72
2023/08/04 04:28:50;;;;;;;13.25;5.72;;;17.50;81.50;;;;;;5048035;28;20026;-72
2023/08/04 04:31:15;;;;;;;10.52;5.72;;;17.50;81.50;;;;;;5047340;28;20095;-72
2023/08/04 04:33:41;;;;;;;13.43;5.80;;;17.50;81.60;;;;;;5047083;28;20096;-72
2023/08/04 04:36:07;;;;;;;13.93;6.07;;;17.50;81.60;;;;;;5039415;28;20028;-71
2023/08/04 04:38:33;;;;;;;12.30;6.07;;;17.50;81.70;;;;;;5047240;28;20024;-71
2023/08/04 04:41:02;;;;;;;13.93;5.18;;;17.50;81.70;;;;;;5047363;28;20105;-71
2023/08/04 04:43:30;;;;;;;13.80;6.35;;;17.50;81.70;;;;;;5039002;28;20346;-71
2023/08/04 04:45:56;;;;;;;12.77;5.15;;;17.60;81.70;;;;;;5050596;28;20032;-71
2023/08/04 04:48:23;;;;;;;12.32;5.38;;;17.60;81.80;;;;;;5043767;28;20470;-71
2023/08/04 04:50:52;;;;;;;12.27;5.63;;;17.60;81.80;;;;;;5048384;28;20035;-71
2023/08/04 04:53:18;;;;;;;13.00;5.78;;;17.60;81.80;;;;;;5048887;28;20037;-71
2023/08/04 04:55:44;;;;;;;13.30;5.57;;;17.60;81.80;;;;;;5050447;28;20036;-71
2023/08/04 04:58:12;;;;;;;10.65;5.60;;;17.60;81.90;;;;;;5051413;28;20041;-71
2023/08/04 05:00:38;;;;;;;14.63;5.50;;;17.60;81.90;;;;;;5052273;28;20445;-70
2023/08/04 05:03:06;;;;;;;12.65;5.25;;;17.60;81.90;;;;;;5044864;28;20377;-70
2023/08/04 05:05:32;;;;;;;9.43;5.30;;;17.60;82.00;;;;;;5056030;28;20021;-70
2023/08/04 05:07:58;;;;;;;10.65;5.43;;;17.60;82.10;;;;;;5045322;28;20146;-70
2023/08/04 05:10:25;;;;;;;13.57;4.93;;;17.70;82.20;;;;;;5050693;28;20025;-70
2023/08/04 05:12:51;;;;;;;12.02;5.07;;;17.60;82.10;;;;;;5049182;28;20021;-70
2023/08/04 05:15:17;;;;;;;10.73;4.68;;;17.70;82.30;;;;;;5036428;28;20425;-70
2023/08/04 05:17:42;;;;;;;10.13;4.53;;;17.60;82.30;;;;;;5049492;28;20114;-69
2023/08/04 05:20:09;;;;;;;10.52;4.57;;;17.60;82.40;;;;;;5050706;28;20098;-69
2023/08/04 05:22:35;;;;;;;9.95;4.13;;;17.60;82.40;;;;;;5038524;28;20371;-69
2023/08/04 05:25:01;;;;;;;10.68;5.78;;;17.70;82.50;;;;;;5049034;28;20013;-69
2023/08/04 05:27:26;;;;;;;8.13;4.03;;;17.70;82.50;;;;;;5049925;28;20027;-69
2023/08/04 05:29:52;;;;;;;11.63;4.88;;;17.70;82.50;;;;;;5047915;28;20377;-68
2023/08/04 05:32:18;;;;;;;11.73;4.55;;;17.80;82.50;;;;;;5040756;28;20036;-70
2023/08/04 05:34:43;;;;;;;11.05;4.78;;;17.80;82.50;;;;;;5050879;28;20028;-70
2023/08/04 05:37:09;;;;;;;10.45;4.47;;;17.80;82.50;;;;;;5029137;28;20090;-71
2023/08/04 05:39:35;;;;;;;9.30;4.13;;;17.80;82.50;;;;;;5046273;28;20470;-70
2023/08/04 05:42:01;;;;;;;11.65;4.45;;;17.80;82.50;;;;;;5047322;28;20450;-70
2023/08/04 05:44:28;;;;;;;9.43;4.13;;;17.90;82.60;;;;;;5050488;28;20466;-69
2023/08/04 05:46:55;;;;;;;8.90;3.30;;;17.90;82.50;;;;;;5051863;28;20025;-71
2023/08/04 05:49:21;;;;;;;10.00;3.90;;;17.90;82.50;;;;;;5037311;28;20434;-70
2023/08/04 05:51:47;;;;;;;9.13;3.72;;;17.90;82.50;;;;;;5034757;28;20036;-68
2023/08/04 05:54:12;;;;;;;7.15;3.60;;;17.90;82.50;;;;;;5046907;28;20033;-68
2023/08/04 05:56:38;;;;;;;8.82;3.28;;;18.00;82.50;;;;;;5049109;28;20034;-69
2023/08/04 05:59:04;;;;;;;9.13;3.20;;;18.00;82.40;;;;;;5045614;28;20107;-70
2023/08/04 06:01:30;;;;;;;6.43;3.08;;;18.00;82.40;;;;;;5037496;28;20373;-68
2023/08/04 06:03:56;;;;;;;8.10;2.55;;;18.10;82.30;;;;;;5047198;28;20033;-68
2023/08/04 06:06:21;;;;;;;11.20;3.58;;;18.10;82.30;;;;;;5047859;28;20020;-68
2023/08/04 06:08:47;;;;;;;14.25;3.92;;;18.10;82.30;;;;;;5045642;28;20027;-70
2023/08/04 06:11:14;;;;;;;9.98;4.13;;;18.10;82.20;;;;;;5043573;28;20028;-67
2023/08/04 06:13:40;;;;;;;8.00;3.60;;;18.10;82.20;;;;;;5042487;28;20033;-67
2023/08/04 06:16:06;;;;;;;8.50;3.88;;;18.20;82.20;;;;;;5060638;28;20129;-67
2023/08/04 06:18:31;;;;;;;9.00;3.67;;;18.20;82.20;;;;;;5048433;28;20029;-67
2023/08/04 06:20:57;;;;;;;7.80;3.75;;;18.20;82.20;;;;;;5045886;28;20033;-68
2023/08/04 06:23:23;;;;;;;14.32;3.90;;;18.20;82.30;;;;;;5037860;28;20068;-67
2023/08/04 06:25:49;;;;;;;9.98;4.60;;;18.20;82.20;;;;;;5049586;28;20029;-67
2023/08/04 06:28:15;;;;;;;10.55;4.20;;;18.30;82.30;;;;;;5046174;28;20031;-67
2023/08/04 06:30:41;;;;;;;8.18;3.65;;;18.30;82.20;;;;;;5049156;28;20115;-67
2023/08/04 06:33:07;;;;;;;13.50;4.57;;;18.30;82.20;;;;;;5027322;28;20050;-67
2023/08/04 06:35:33;;;;;;;9.07;4.00;;;18.30;82.10;;;;;;5043711;28;20100;-66
2023/08/04 06:37:59;;;;;;;11.20;4.35;;;18.40;82.10;;;;;;5042542;28;20032;-67
2023/08/04 06:40:25;;;;;;;8.18;4.20;;;18.50;82.00;;;;;;5042325;28;20021;-67
2023/08/04 06:42:53;;;;;;;7.60;4.40;;;18.50;81.90;;;;;;5021329;28;20063;-68
2023/08/04 06:45:19;;;;;;;10.88;4.25;;;18.50;81.80;;;;;;5036247;28;20505;-67
2023/08/04 06:47:45;;;;;;;10.23;4.65;;;18.60;81.80;;;;;;5038873;28;20025;-67
2023/08/04 06:50:10;;;;;;;12.27;4.38;;;18.60;81.60;;;;;;5039174;28;20089;-67
2023/08/04 06:52:36;;;;;;;8.20;4.47;;;18.70;81.60;;;;;;5047258;28;20060;-67
2023/08/04 06:55:02;;;;;;;15.65;5.03;;;18.70;81.50;;;;;;5046438;28;20044;-67
2023/08/04 06:57:28;;;;;;;8.38;3.97;;;18.70;81.50;;;;;;5044708;28;20143;-67
2023/08/04 06:59:54;;;;;;;10.02;4.15;;;18.80;81.50;;;;;;5039166;28;20374;-67
2023/08/04 07:02:19;;;;;;;33.40;7.00;;;18.80;81.30;;;;;;5035668;28;20041;-67
2023/08/04 07:04:45;;;;;;;12.10;4.22;;;18.90;81.20;;;;;;5042670;28;20104;-67
2023/08/04 07:07:11;;;;;;;9.82;4.45;;;18.90;81.10;;;;;;5048366;28;20033;-67
2023/08/04 07:09:37;;;;;;;10.10;3.70;;;18.90;81.00;;;;;;5045161;28;20445;-67
2023/08/04 07:12:03;;;;;;;8.52;3.58;;;18.90;80.90;;;;;;5045060;28;20106;-66
2023/08/04 07:14:29;;;;;;;8.52;3.70;;;18.90;80.70;;;;;;5037059;28;20108;-68
2023/08/04 07:16:54;;;;;;;8.60;3.38;;;19.00;80.60;;;;;;5029241;28;20586;-67
2023/08/04 07:19:20;;;;;;;12.25;3.75;;;19.10;80.40;;;;;;5043109;28;20052;-66
2023/08/04 07:21:46;;;;;;;8.88;3.50;;;19.20;80.30;;;;;;5042459;28;20132;-70
2023/08/04 07:24:12;;;;;;;7.85;3.30;;;19.30;80.20;;;;;;5039372;28;20395;-67
2023/08/04 07:26:38;;;;;;;99.63;11.15;;;19.40;79.90;;;;;;5044812;28;20465;-66
2023/08/04 07:29:04;;;;;;;22.77;5.32;;;19.60;79.50;;;;;;5035353;28;20584;-66
2023/08/04 07:31:31;;;;;;;8.57;3.60;;;19.70;79.20;;;;;;5044327;28;20100;-66
2023/08/04 07:33:57;;;;;;;10.55;3.50;;;19.70;79.00;;;;;;5031542;28;20196;-66
2023/08/04 07:36:23;;;;;;;7.78;3.20;;;19.80;78.90;;;;;;5037104;28;20502;-68
2023/08/04 07:38:49;;;;;;;8.52;3.40;;;19.80;78.90;;;;;;5043879;28;20029;-65
2023/08/04 07:41:23;;;;;;;5.88;2.72;;;19.70;78.90;;;;;;5039007;28;20041;-67
2023/08/04 07:43:49;;;;;;;7.43;2.88;;;19.70;78.80;;;;;;5046613;28;20096;-66
2023/08/04 07:46:22;;;;;;;8.57;2.88;;;19.60;79.50;;;;;;5042341;28;20026;-65
2023/08/04 07:48:49;;;;;;;8.48;2.78;;;19.60;78.80;;;;;;5044036;28;20032;-65
2023/08/04 07:51:15;;;;;;;7.05;2.63;;;19.50;78.90;;;;;;5050539;28;20045;-67
2023/08/04 07:53:41;;;;;;;7.75;3.03;;;19.50;79.00;;;;;;5044134;28;20040;-66
2023/08/04 07:56:07;;;;;;;7.88;3.03;;;19.50;79.10;;;;;;5043600;28;20033;-66
2023/08/04 07:58:33;;;;;;;7.50;3.00;;;19.60;79.00;;;;;;5031632;28;21823;-65
2023/08/04 08:00:58;;;;;;;8.30;3.03;;;19.70;78.80;;;;;;5046996;28;20108;-66
2023/08/04 08:03:24;;;;;;;7.13;2.80;;;19.80;78.40;;;;;;5046289;28;20021;-65
2023/08/04 08:05:50;;;;;;;7.95;3.25;;;19.90;78.30;;;;;;5046206;28;20341;-67
2023/08/04 08:08:18;;;;;;;8.85;3.10;;;20.00;78.10;;;;;;5040933;28;20048;-66
2023/08/04 08:10:44;;;;;;;6.45;3.42;;;20.10;77.80;;;;;;5045142;28;20442;-65
2023/08/04 08:13:12;;;;;;;9.65;3.60;;;20.20;77.50;;;;;;5044796;28;20034;-66
2023/08/04 08:15:38;;;;;;;6.53;3.22;;;20.20;77.20;;;;;;5024458;28;20111;-66
2023/08/04 08:18:04;;;;;;;7.38;2.72;;;20.20;77.20;;;;;;5037308;28;20124;-67
2023/08/04 08:20:30;;;;;;;6.75;2.85;;;20.30;77.20;;;;;;5046177;28;20083;-67
2023/08/04 08:22:56;;;;;;;7.18;2.97;;;20.20;76.90;;;;;;5044185;28;20047;-66
2023/08/04 08:25:22;;;;;;;6.82;3.05;;;20.30;76.80;;;;;;5044513;28;20449;-67
2023/08/04 08:27:48;;;;;;;6.78;2.75;;;20.20;76.70;;;;;;5045029;28;20029;-67
2023/08/04 08:30:14;;;;;;;5.93;2.80;;;20.30;76.70;;;;;;5043662;28;20056;-67
2023/08/04 08:32:39;;;;;;;6.43;2.72;;;20.30;76.50;;;;;;5026337;28;20029;-68
2023/08/04 08:35:06;;;;;;;5.80;2.38;;;20.40;76.40;;;;;;5045567;28;20041;-70
2023/08/04 08:37:32;;;;;;;8.38;3.28;;;20.50;76.10;;;;;;5048787;28;20070;-67
2023/08/04 08:39:57;;;;;;;7.60;2.53;;;20.60;75.80;;;;;;5039997;28;20075;-68
2023/08/04 08:42:23;;;;;;;4.05;1.92;;;20.60;75.70;;;;;;5041715;28;20064;-69
2023/08/04 08:44:49;;;;;;;5.55;2.50;;;20.60;75.80;;;;;;5038365;28;20064;-68
2023/08/04 08:47:20;;;;;;;5.38;2.45;;;20.50;75.80;;;;;;5044271;28;20112;-68
2023/08/04 08:49:47;;;;;;;5.17;2.10;;;20.50;75.80;;;;;;5041610;28;20419;-68
2023/08/04 08:52:13;;;;;;;5.97;2.53;;;20.40;75.90;;;;;;5041160;28;20362;-70
2023/08/04 08:54:39;;;;;;;5.38;2.20;;;20.30;75.80;;;;;;5045209;28;20120;-69
2023/08/04 08:57:06;;;;;;;6.93;2.40;;;20.20;75.80;;;;;;5049672;28;20646;-67
2023/08/04 08:59:33;;;;;;;10.00;2.20;;;20.50;75.60;;;;;;5041708;28;20335;-68
2023/08/04 09:02:00;;;;;;;5.13;2.10;;;20.80;74.80;;;;;;5033939;28;20884;-68
2023/08/04 09:04:31;;;;;;;5.72;2.03;;;21.00;74.10;;;;;;5046850;28;20048;-68
2023/08/04 09:06:57;;;;;;;4.63;1.70;;;21.30;73.20;;;;;;5024869;28;20021;-68
2023/08/04 09:09:23;;;;;;;3.38;1.63;;;21.50;72.90;;;;;;5042355;28;20025;-67
2023/08/04 09:11:49;;;;;;;3.47;1.70;;;21.90;72.10;;;;;;5046723;28;20354;-67
2023/08/04 09:14:15;;;;;;;3.45;1.38;;;22.00;71.10;;;;;;5042667;28;20032;-68
2023/08/04 09:16:42;;;;;;;3.78;1.60;;;22.10;70.20;;;;;;5024411;28;20045;-67
2023/08/04 09:19:09;;;;;;;4.85;1.50;;;22.00;69.80;;;;;;5045102;28;20018;-68
2023/08/04 09:21:36;;;;;;;3.72;1.45;;;21.90;69.70;;;;;;5043466;28;20037;-68
2023/08/04 09:24:04;;;;;;;4.63;1.60;;;21.90;70.00;;;;;;5043801;28;20447;-68
2023/08/04 09:26:46;;;;;;;2.80;1.50;;;22.00;69.80;;;;;;5045493;28;20079;-68
2023/08/04 09:29:14;;;;;;;3.80;1.55;;;22.00;69.80;;;;;;5043779;28;20468;-67
2023/08/04 09:31:42;;;;;;;4.18;1.33;;;21.80;70.20;;;;;;5038701;28;20017;-68
2023/08/04 09:34:09;;;;;;;2.67;1.50;;;21.60;70.30;;;;;;5039884;28;20121;-69
2023/08/04 09:36:38;;;;;;;5.22;1.70;;;21.40;70.40;;;;;;5037475;28;20087;-68
2023/08/04 09:39:05;;;;;;;6.80;1.83;;;21.30;70.40;;;;;;5046568;28;20025;-68
2023/08/04 09:41:38;;;;;;;6.50;1.63;;;21.20;70.40;;;;;;5030281;28;20074;-67
2023/08/04 09:44:07;;;;;;;4.32;1.30;;;21.20;70.10;;;;;;5039325;28;20382;-67
2023/08/04 09:46:39;;;;;;;4.03;1.63;;;21.30;70.00;;;;;;5026419;28;20048;-68
2023/08/04 09:49:05;;;;;;;2.13;1.13;;;21.50;69.90;;;;;;5022811;28;20049;-67
2023/08/04 09:51:39;;;;;;;3.58;1.60;;;21.80;69.90;;;;;;5045701;28;20438;-67
2023/08/04 09:54:05;;;;;;;4.72;1.60;;;22.00;68.40;;;;;;5045751;28;20403;-65
2023/08/04 09:56:32;;;;;;;5.40;1.55;;;22.00;68.20;;;;;;5041261;28;20040;-65
2023/08/04 09:58:58;;;;;;;3.58;1.48;;;22.00;68.00;;;;;;5040463;28;20494;-66
2023/08/04 10:01:25;;;;;;;4.88;1.50;;;22.00;68.00;;;;;;5041223;28;20029;-66
2023/08/04 10:03:54;;;;;;;2.83;1.25;;;22.10;68.00;;;;;;5047955;28;20456;-67
2023/08/04 10:06:20;;;;;;;3.92;1.40;;;22.30;67.50;;;;;;5023516;28;20020;-67
2023/08/04 10:08:48;;;;;;;2.88;1.30;;;22.30;67.00;;;;;;5044907;28;20358;-66
2023/08/04 10:11:14;;;;;;;6.07;1.60;;;22.60;66.80;;;;;;5027204;28;20043;-67
2023/08/04 10:13:42;;;;;;;2.70;1.25;;;23.10;66.30;;;;;;5043666;28;20029;-66
2023/08/04 10:16:17;;;;;;;3.40;1.50;;;23.10;65.70;;;;;;5041890;28;20039;-66
2023/08/04 10:19:00;;;;;;;4.40;1.70;;;23.00;65.70;;;;;;5046765;28;20028;-66
2023/08/04 10:21:33;;;;;;;5.50;1.63;;;22.80;65.80;;;;;;5062053;28;20418;-67
2023/08/04 10:23:59;;;;;;;3.53;1.17;;;22.50;65.90;;;;;;5046796;28;20033;-65
2023/08/04 10:26:25;;;;;;;3.17;1.25;;;22.40;66.30;;;;;;5043749;28;20389;-67
2023/08/04 10:29:10;;;;;;;2.38;1.40;;;22.30;66.40;;;;;;5049290;28;20028;-66
2023/08/04 10:31:55;;;;;;;4.50;1.42;;;22.30;66.20;;;;;;5045520;28;20056;-66
2023/08/04 10:34:26;;;;;;;3.35;1.33;;;22.40;66.00;;;;;;5050213;28;20016;-66
2023/08/04 10:36:53;;;;;;;;;;;22.80;66.10;;;;;;5048197;28;20052;-66
2023/08/04 10:39:32;;;;;;;2.45;1.10;;;23.20;65.60;;;;;;5043777;28;19915;-67
2023/08/04 10:41:59;;;;;;;2.30;1.33;;;23.40;64.80;;;;;;5041156;28;20033;-66
2023/08/04 10:44:45;;;;;;;4.60;1.48;;;23.40;64.60;;;;;;5044681;28;20033;-67
2023/08/04 10:47:12;;;;;;;2.97;1.27;;;23.50;64.40;;;;;;5044000;28;20124;-66
2023/08/04 10:49:37;;;;;;;3.35;1.50;;;23.50;64.30;;;;;;5047000;28;20048;-67
2023/08/04 10:52:04;;;;;;;4.93;1.52;;;23.30;64.10;;;;;;5018153;28;20032;-67
2023/08/04 10:54:30;;;;;;;5.18;1.48;;;23.20;63.70;;;;;;5042905;28;20037;-67
2023/08/04 10:56:55;;;;;;;3.88;1.48;;;23.10;63.40;;;;;;5027696;28;20074;-67
2023/08/04 10:59:21;;;;;;;3.97;1.55;;;23.10;63.30;;;;;;5030073;28;20540;-67
2023/08/04 11:01:47;;;;;;;3.53;1.50;;;23.40;63.00;;;;;;5039824;28;20429;-67
2023/08/04 11:04:15;;;;;;;4.53;1.42;;;23.60;62.30;;;;;;5052712;28;20084;-67
2023/08/04 11:06:41;;;;;;;5.10;2.08;;;23.80;61.70;;;;;;5048293;28;20067;-67
2023/08/04 11:09:10;;;;;;;5.57;1.40;;;23.80;61.50;;;;;;5055964;28;20044;-67
2023/08/04 11:11:36;;;;;;;5.30;1.30;;;23.70;61.30;;;;;;5056786;28;20029;-68
2023/08/04 11:14:07;;;;;;;4.25;1.50;;;23.70;61.30;;;;;;5056819;28;20385;-67
2023/08/04 11:16:35;;;;;;;4.05;1.52;;;23.60;61.40;;;;;;5058273;28;20037;-67
2023/08/04 11:19:08;;;;;;;6.60;1.65;;;23.60;61.30;;;;;;5055497;28;20025;-67
2023/08/04 11:21:34;;;;;;;2.67;1.17;;;23.50;60.90;;;;;;5057729;28;20406;-67
2023/08/04 11:24:00;;;;;;;4.75;1.65;;;23.50;61.00;;;;;;5056388;28;20112;-67
2023/08/04 11:26:28;;;;;;;7.28;1.83;;;23.40;60.80;;;;;;5056971;28;20358;-67
2023/08/04 11:28:58;;;;;;;4.22;1.55;;;23.50;60.60;;;;;;5055557;28;20036;-67
2023/08/04 11:31:26;;;;;;;5.53;1.93;;;23.70;60.50;;;;;;5058112;28;20035;-67
2023/08/04 11:33:52;;;;;;;7.00;2.10;;;23.90;60.00;;;;;;5057407;28;20506;-67
2023/08/04 11:36:18;;;;;;;4.32;1.45;;;24.20;59.50;;;;;;5056599;28;20469;-67
2023/08/04 11:38:43;;;;;;;5.05;1.90;;;24.40;58.80;;;;;;5055922;28;20020;-67
2023/08/04 11:41:11;;;;;;;3.85;1.40;;;24.50;58.40;;;;;;5052315;28;20462;-67
2023/08/04 11:43:37;;;;;;;3.53;1.52;;;24.60;58.50;;;;;;5056187;28;20059;-67
2023/08/04 11:46:04;;;;;;;4.43;1.50;;;24.30;58.80;;;;;;5056994;28;20109;-67
2023/08/04 11:48:30;;;;;;;2.83;1.40;;;24.10;60.30;;;;;;5055702;28;20025;-67
2023/08/04 11:50:56;;;;;;;5.68;1.80;;;23.70;60.70;;;;;;5054525;28;20496;-67
2023/08/04 11:53:22;;;;;;;4.78;1.63;;;23.50;61.60;;;;;;5043582;28;20029;-67
2023/08/04 11:55:56;;;;;;;5.15;1.75;;;23.20;61.80;;;;;;5057430;28;20143;-67
2023/08/04 11:58:32;;;;;;;5.70;1.77;;;23.00;61.90;;;;;;5054827;28;20519;-67
2023/08/04 12:00:58;;;;;;;7.13;1.85;;;22.80;62.30;;;;;;5057119;28;20086;-67
2023/08/04 12:03:23;;;;;;;3.80;1.52;;;22.50;62.80;;;;;;5056793;28;20330;-67
2023/08/04 12:05:50;;;;;;;6.40;1.67;;;22.40;63.60;;;;;;5055154;28;20341;-67
2023/08/04 12:08:16;;;;;;;5.07;1.65;;;22.20;64.60;;;;;;5056472;28;20044;-67
2023/08/04 12:10:42;;;;;;;4.65;1.70;;;22.00;65.70;;;;;;5056714;28;20032;-67
2023/08/04 12:13:08;;;;;;;6.32;1.95;;;21.90;66.80;;;;;;5055547;28;20033;-67
2023/08/04 12:15:51;;;;;;;6.35;1.98;;;21.80;67.70;;;;;;5040393;28;20033;-67
2023/08/04 12:18:25;;;;;;;5.63;2.15;;;21.70;68.40;;;;;;5047717;28;20045;-67
2023/08/04 12:20:50;;;;;;;5.78;2.47;;;21.70;68.90;;;;;;5056681;28;20033;-67
2023/08/04 12:23:16;;;;;;;6.45;2.03;;;21.80;69.10;;;;;;5055460;28;20032;-68
2023/08/04 12:25:42;;;;;;;5.22;2.10;;;22.00;69.40;;;;;;5055330;28;20021;-66
2023/08/04 12:28:08;;;;;;;5.95;2.17;;;22.20;69.30;;;;;;5044874;28;20017;-66
2023/08/04 12:30:33;;;;;;;6.30;2.08;;;22.20;69.10;;;;;;5043295;28;20426;-66
2023/08/04 12:32:59;;;;;;;5.53;1.77;;;22.20;69.00;;;;;;5045734;28;20033;-67
2023/08/04 12:35:25;;;;;;;6.90;1.75;;;22.30;68.90;;;;;;5046446;28;20028;-68
2023/08/04 12:37:51;;;;;;;5.00;1.67;;;22.40;68.60;;;;;;5041500;28;20029;-67
2023/08/04 12:40:16;;;;;;;4.30;1.60;;;22.50;68.50;;;;;;5043052;28;20085;-68
2023/08/04 12:42:42;;;;;;;5.63;1.80;;;22.50;68.10;;;;;;5046934;28;20037;-67